Terminal Aerodrome Forecast
Issued by NWS Blacksburg, VA

Current Version | Previous Version | Graphics & Text | Print | Product List | Glossary On
Versions: 1 2 3 4 5 6 7 8 9 10 11 12 13 14 15 16 17 18 19 20 21 22 23 24 25 26 27 28 29 30 31 32 33 34 35 36 37 38 39 40 41 42
000
FTUS41 KRNK 271409 AAA
TAFBLF
TAF AMD
KBLF 271409Z 2714/2812 22009KT P6SM SCT020 SCT100
     FM271600 23010KT P6SM VCSH BKN025
      TEMPO 2716/2720 4SM SHRA
     FM272000 25009G17KT P6SM BKN040
     FM280300 28010G20KT P6SM SCT015 BKN025=

USA.gov is the U.S. government's official web portal to all federal, state and local government web resources and services.